createdAt,value
2022-08-14T00:00:15.641Z,1008.21
2022-08-14T00:01:15.674Z,1008.19
2022-08-14T00:02:15.757Z,1008.22
2022-08-14T00:03:15.728Z,1008.18
2022-08-14T00:04:34.853Z,1008.22
2022-08-14T00:05:15.793Z,1008.20
2022-08-14T00:06:25.577Z,1008.20
2022-08-14T00:07:15.850Z,1008.19
2022-08-14T00:08:15.899Z,1008.17
2022-08-14T00:09:15.910Z,1008.13
2022-08-14T00:10:51.586Z,1008.13
2022-08-14T00:11:15.971Z,1008.12
2022-08-14T00:12:24.466Z,1008.11
2022-08-14T00:13:16.031Z,1008.11
2022-08-14T00:14:17.300Z,1008.11
2022-08-14T00:15:16.097Z,1008.13
2022-08-14T00:16:40.376Z,1008.08
2022-08-14T00:17:16.154Z,1008.06
2022-08-14T00:18:30.810Z,1008.06
2022-08-14T00:19:21.203Z,1008.04
2022-08-14T00:20:16.245Z,1008.03
2022-08-14T00:21:16.291Z,1008.00
2022-08-14T00:22:44.100Z,1008.00
2022-08-14T00:23:16.776Z,1008.03
2022-08-14T00:24:28.467Z,1007.97
2022-08-14T00:25:16.397Z,1007.98
2022-08-14T00:26:21.921Z,1007.97
2022-08-14T00:27:16.459Z,1007.95
2022-08-14T00:28:17.798Z,1007.94
2022-08-14T00:29:16.514Z,1007.96
2022-08-14T00:30:17.453Z,1007.98
2022-08-14T00:31:16.575Z,1007.98
2022-08-14T00:32:52.559Z,1007.95
2022-08-14T00:33:16.918Z,1007.92
2022-08-14T00:34:37.124Z,1007.92
2022-08-14T00:35:16.695Z,1007.94
2022-08-14T00:36:36.073Z,1007.93
2022-08-14T00:37:16.775Z,1007.90
2022-08-14T00:38:16.781Z,1007.92
2022-08-14T00:39:18.056Z,1007.92
2022-08-14T00:40:33.113Z,1007.92
2022-08-14T00:41:16.874Z,1007.89
2022-08-14T00:42:52.473Z,1007.90
2022-08-14T00:43:16.935Z,1007.88
2022-08-14T00:44:27.526Z,1007.87
2022-08-14T00:45:16.991Z,1007.86
2022-08-14T00:46:32.238Z,1007.89
2022-08-14T00:47:17.054Z,1007.84
2022-08-14T00:48:33.902Z,1007.85
2022-08-14T00:49:17.113Z,1007.90
2022-08-14T00:50:17.875Z,1007.86
2022-08-14T00:51:17.173Z,1007.85
2022-08-14T00:52:18.225Z,1007.80
2022-08-14T00:53:17.232Z,1007.85
2022-08-14T00:54:22.072Z,1007.83
2022-08-14T00:55:17.291Z,1007.80
2022-08-14T00:56:17.320Z,1007.80
2022-08-14T00:57:17.352Z,1007.82
2022-08-14T00:58:17.380Z,1007.81
2022-08-14T00:59:17.409Z,1007.80
2022-08-14T01:00:34.156Z,1007.81
2022-08-14T01:01:17.506Z,1007.79
2022-08-14T01:02:17.500Z,1007.82
2022-08-14T01:03:17.533Z,1007.78
2022-08-14T01:04:51.352Z,1007.84
2022-08-14T01:05:17.587Z,1007.78
2022-08-14T01:06:18.687Z,1007.79
2022-08-14T01:07:17.649Z,1007.80
2022-08-14T01:08:20.616Z,1007.78
2022-08-14T01:09:17.708Z,1007.74
2022-08-14T01:10:17.738Z,1007.72
2022-08-14T01:11:19.536Z,1007.69
2022-08-14T01:12:26.890Z,1007.66
2022-08-14T01:13:17.827Z,1007.64
2022-08-14T01:14:25.250Z,1007.59
2022-08-14T01:15:17.884Z,1007.58
2022-08-14T01:16:19.420Z,1007.57
2022-08-14T01:17:17.946Z,1007.55
2022-08-14T01:18:17.973Z,1007.53
2022-08-14T01:19:19.537Z,1007.53
2022-08-14T01:20:27.607Z,1007.53
2022-08-14T01:21:18.065Z,1007.53
2022-08-14T01:22:18.932Z,1007.54
2022-08-14T01:23:18.753Z,1007.52
2022-08-14T01:24:22.873Z,1007.54
2022-08-14T01:25:18.179Z,1007.55
2022-08-14T01:26:34.427Z,1007.58
2022-08-14T01:27:18.249Z,1007.55
2022-08-14T01:28:47.158Z,1007.58
2022-08-14T01:29:18.298Z,1007.56
2022-08-14T01:30:20.892Z,1007.55
2022-08-14T01:31:18.358Z,1007.52
2022-08-14T01:32:23.244Z,1007.51
2022-08-14T01:33:18.418Z,1007.49
2022-08-14T01:35:18.128Z,1007.46
2022-08-14T01:36:04.337Z,1007.45
2022-08-14T01:36:21.079Z,1007.41
2022-08-14T01:37:18.534Z,1007.43
2022-08-14T01:38:18.559Z,1007.38
2022-08-14T01:39:18.634Z,1007.39
2022-08-14T01:40:20.004Z,1007.41
2022-08-14T01:41:18.653Z,1007.39
2022-08-14T01:42:31.558Z,1007.40
2022-08-14T01:43:22.203Z,1007.37
2022-08-14T01:44:33.210Z,1007.33
2022-08-14T01:45:25.635Z,1007.31
2022-08-14T01:46:24.320Z,1007.32
2022-08-14T01:47:22.175Z,1007.30
2022-08-14T01:48:20.656Z,1007.31
2022-08-14T01:49:18.886Z,1007.31
2022-08-14T01:50:18.918Z,1007.30
2022-08-14T01:51:20.054Z,1007.24
2022-08-14T01:52:34.612Z,1007.28
2022-08-14T01:53:19.005Z,1007.22
2022-08-14T01:54:19.034Z,1007.24
2022-08-14T01:55:19.064Z,1007.21
2022-08-14T01:56:19.093Z,1007.18
2022-08-14T01:57:19.122Z,1007.16
2022-08-14T01:58:24.663Z,1007.13
2022-08-14T01:59:19.184Z,1007.09
2022-08-14T02:00:19.212Z,1007.12
2022-08-14T02:01:19.260Z,1007.08
2022-08-14T02:02:19.769Z,1007.08
2022-08-14T02:03:19.299Z,1007.08
2022-08-14T02:04:40.495Z,1007.12
2022-08-14T02:05:19.358Z,1007.05
2022-08-14T02:06:32.830Z,1007.04
2022-08-14T02:07:34.235Z,1007.05
2022-08-14T02:08:22.560Z,1007.08
2022-08-14T02:09:22.501Z,1007.04
2022-08-14T02:10:19.504Z,1007.05
2022-08-14T02:11:20.234Z,1007.02
2022-08-14T02:12:26.573Z,1007.04
2022-08-14T02:13:19.840Z,1007.00
2022-08-14T02:14:31.378Z,1007.01
2022-08-14T02:15:19.650Z,1007.03
2022-08-14T02:16:22.277Z,1007.00
2022-08-14T02:17:19.708Z,1007.01
2022-08-14T02:18:19.735Z,1006.98
2022-08-14T02:19:19.764Z,1006.97
2022-08-14T02:20:23.420Z,1006.94
2022-08-14T02:21:23.197Z,1006.94
2022-08-14T02:22:32.680Z,1006.95
2022-08-14T02:23:27.770Z,1006.91
2022-08-14T02:24:40.439Z,1006.89
2022-08-14T02:25:19.937Z,1006.86
2022-08-14T02:26:24.963Z,1006.85
2022-08-14T02:28:26.102Z,1006.83
2022-08-14T02:28:56.085Z,1006.89
2022-08-14T02:29:20.057Z,1006.88
2022-08-14T02:30:20.089Z,1006.87
2022-08-14T02:31:20.114Z,1006.88
2022-08-14T02:32:36.336Z,1006.91
2022-08-14T02:33:20.176Z,1006.90
2022-08-14T02:34:26.189Z,1006.90
2022-08-14T02:35:21.846Z,1006.91
2022-08-14T02:37:04.987Z,1006.91
2022-08-14T02:37:20.317Z,1006.88
2022-08-14T02:38:29.492Z,1006.86
2022-08-14T02:39:20.449Z,1006.88
2022-08-14T02:40:20.378Z,1006.85
2022-08-14T02:41:20.405Z,1006.84
2022-08-14T02:42:23.638Z,1006.84
2022-08-14T02:43:22.533Z,1006.81
2022-08-14T02:44:29.646Z,1006.80
2022-08-14T02:45:20.521Z,1006.81
2022-08-14T02:46:24.495Z,1006.79
2022-08-14T02:47:21.262Z,1006.80
2022-08-14T02:49:02.630Z,1006.77
2022-08-14T02:49:20.632Z,1006.78
2022-08-14T02:50:20.664Z,1006.72
2022-08-14T02:51:20.691Z,1006.76
2022-08-14T02:52:55.441Z,1006.72
2022-08-14T02:53:20.750Z,1006.65
2022-08-14T02:54:20.784Z,1006.68
2022-08-14T02:55:20.810Z,1006.64
2022-08-14T02:56:30.383Z,1006.66
2022-08-14T02:57:39.303Z,1006.68
2022-08-14T02:58:21.438Z,1006.69
2022-08-14T02:59:21.096Z,1006.64
2022-08-14T03:00:20.953Z,1006.66
2022-08-14T03:01:21.006Z,1006.65
2022-08-14T03:02:48.861Z,1006.62
2022-08-14T03:03:21.038Z,1006.63
2022-08-14T03:04:21.066Z,1006.59
2022-08-14T03:05:21.096Z,1006.55
2022-08-14T03:06:34.918Z,1006.52
2022-08-14T03:07:21.151Z,1006.50
2022-08-14T03:08:21.186Z,1006.49
2022-08-14T03:09:21.208Z,1006.48
2022-08-14T03:10:27.555Z,1006.47
2022-08-14T03:11:21.267Z,1006.49
2022-08-14T03:12:31.204Z,1006.40
2022-08-14T03:13:22.015Z,1006.41
2022-08-14T03:14:21.353Z,1006.39
2022-08-14T03:15:21.381Z,1006.42
2022-08-14T03:16:26.895Z,1006.40
2022-08-14T03:17:21.437Z,1006.39
2022-08-14T03:18:21.465Z,1006.34
2022-08-14T03:19:21.498Z,1006.32
2022-08-14T03:20:22.347Z,1006.31
2022-08-14T03:21:21.601Z,1006.32
2022-08-14T03:22:21.580Z,1006.33
2022-08-14T03:23:21.608Z,1006.34
2022-08-14T03:24:23.228Z,1006.33
2022-08-14T03:25:21.671Z,1006.29
2022-08-14T03:26:29.727Z,1006.25
2022-08-14T03:27:21.720Z,1006.27
2022-08-14T03:28:29.497Z,1006.28
2022-08-14T03:29:21.778Z,1006.24
2022-08-14T03:30:23.407Z,1006.22
2022-08-14T03:31:21.832Z,1006.27
2022-08-14T03:32:30.256Z,1006.24
2022-08-14T03:33:21.893Z,1006.22
2022-08-14T03:34:24.330Z,1006.22
2022-08-14T03:35:21.949Z,1006.23
2022-08-14T03:37:38.206Z,1006.21
2022-08-14T03:37:51.892Z,1006.22
2022-08-14T03:39:14.270Z,1006.23
2022-08-14T03:39:24.356Z,1006.22
2022-08-14T03:40:22.091Z,1006.22
2022-08-14T03:41:22.951Z,1006.17
2022-08-14T03:42:22.151Z,1006.17
2022-08-14T03:43:22.176Z,1006.18
2022-08-14T03:45:19.256Z,1006.16
2022-08-14T03:45:34.442Z,1006.11
2022-08-14T03:46:52.405Z,1006.13
2022-08-14T03:47:22.291Z,1006.11
2022-08-14T03:48:30.216Z,1006.11
2022-08-14T03:49:24.252Z,1006.11
2022-08-14T03:50:27.555Z,1006.09
2022-08-14T03:51:22.402Z,1006.13
2022-08-14T03:52:38.967Z,1006.10
2022-08-14T03:53:22.455Z,1006.11
2022-08-14T03:54:22.485Z,1006.10
2022-08-14T03:55:22.516Z,1006.09
2022-08-14T03:56:22.542Z,1006.08
2022-08-14T03:57:22.927Z,1006.10
2022-08-14T03:58:23.667Z,1006.10
2022-08-14T03:59:22.632Z,1006.07
2022-08-14T04:00:40.684Z,1006.05
2022-08-14T04:01:22.750Z,1006.06
2022-08-14T04:02:46.852Z,1006.05
2022-08-14T04:03:24.099Z,1006.02
2022-08-14T04:04:22.765Z,1005.98
2022-08-14T04:05:22.798Z,1005.99
2022-08-14T04:06:22.825Z,1006.00
2022-08-14T04:07:22.855Z,1006.03
2022-08-14T04:08:30.981Z,1006.04
2022-08-14T04:09:22.908Z,1006.04
2022-08-14T04:10:26.303Z,1006.00
2022-08-14T04:11:22.972Z,1006.00
2022-08-14T04:12:26.188Z,1005.96
2022-08-14T04:13:23.920Z,1005.98
2022-08-14T04:14:23.550Z,1005.96
2022-08-14T04:15:23.538Z,1005.92
2022-08-14T04:16:23.114Z,1005.94
2022-08-14T04:17:23.140Z,1005.93
2022-08-14T04:18:23.169Z,1005.94
2022-08-14T04:19:23.195Z,1005.93
2022-08-14T04:20:25.566Z,1005.94
2022-08-14T04:21:23.256Z,1005.97
2022-08-14T04:22:23.285Z,1005.93
2022-08-14T04:23:29.858Z,1005.92
2022-08-14T04:24:23.340Z,1005.91
2022-08-14T04:25:23.363Z,1005.92
2022-08-14T04:26:27.286Z,1005.92
2022-08-14T04:27:23.425Z,1005.90
2022-08-14T04:29:09.146Z,1005.92
2022-08-14T04:29:23.482Z,1005.91
2022-08-14T04:30:30.896Z,1005.91
2022-08-14T04:32:56.336Z,1005.90
2022-08-14T04:33:01.605Z,1005.93
2022-08-14T04:33:23.861Z,1005.89
2022-08-14T04:34:24.164Z,1005.86
2022-08-14T04:35:23.802Z,1005.84
2022-08-14T04:36:24.033Z,1005.85
2022-08-14T04:37:24.987Z,1005.82
2022-08-14T04:38:36.425Z,1005.84
2022-08-14T04:39:23.834Z,1005.80
2022-08-14T04:40:30.965Z,1005.81
2022-08-14T04:42:28.289Z,1005.83
2022-08-14T04:43:38.367Z,1005.86
2022-08-14T04:45:32.343Z,1005.90
2022-08-14T04:46:55.623Z,1005.88
2022-08-14T04:48:41.052Z,1005.95
2022-08-14T04:49:38.458Z,1005.95
2022-08-14T04:51:46.610Z,1005.99
2022-08-14T04:52:40.024Z,1005.98
2022-08-14T04:54:44.484Z,1006.00
2022-08-14T04:55:44.042Z,1006.02
2022-08-14T04:57:36.995Z,1006.00
2022-08-14T04:58:37.010Z,1006.04
2022-08-14T05:00:41.542Z,1006.08
2022-08-14T05:01:41.117Z,1006.08
2022-08-14T05:03:45.086Z,1006.06
2022-08-14T05:04:58.581Z,1006.04
2022-08-14T05:06:54.298Z,1006.04
2022-08-14T05:08:01.298Z,1006.02
2022-08-14T05:09:53.724Z,1006.07
2022-08-14T05:10:53.218Z,1006.04
2022-08-14T05:13:13.680Z,1006.01
2022-08-14T05:14:42.850Z,1006.00
2022-08-14T05:16:02.750Z,1005.98
2022-08-14T05:17:02.458Z,1006.00
2022-08-14T05:19:18.018Z,1005.97
2022-08-14T05:21:54.069Z,1005.99
2022-08-14T05:22:17.519Z,1006.00
2022-08-14T05:23:11.196Z,1006.04
2022-08-14T05:25:14.995Z,1006.04
2022-08-14T05:26:14.460Z,1006.02
2022-08-14T05:28:18.493Z,1006.02
2022-08-14T05:29:18.512Z,1006.01
2022-08-14T05:31:23.003Z,1006.06
2022-08-14T05:32:22.848Z,1006.02
2022-08-14T05:34:28.852Z,1006.01
2022-08-14T05:35:26.602Z,1006.02
2022-08-14T05:37:20.091Z,1006.00
2022-08-14T05:38:22.471Z,1005.99
2022-08-14T05:40:23.599Z,1005.98
2022-08-14T05:41:23.622Z,1005.93
2022-08-14T05:43:40.866Z,1005.91
2022-08-14T05:44:30.167Z,1005.92
2022-08-14T05:46:31.700Z,1005.92
2022-08-14T05:47:38.837Z,1005.94
2022-08-14T05:49:36.221Z,1005.95
2022-08-14T05:50:35.768Z,1005.96
2022-08-14T05:52:39.802Z,1005.96
2022-08-14T05:53:42.345Z,1005.95
2022-08-14T05:55:44.903Z,1005.99
2022-08-14T05:56:43.866Z,1005.98
2022-08-14T05:58:47.893Z,1005.97
2022-08-14T05:59:47.912Z,1005.98
2022-08-14T06:01:52.473Z,1005.98
2022-08-14T06:02:51.964Z,1005.99
2022-08-14T06:04:58.845Z,1005.96
2022-08-14T06:05:56.015Z,1005.92
2022-08-14T06:07:48.970Z,1005.91
2022-08-14T06:08:48.981Z,1005.93
2022-08-14T06:10:53.486Z,1005.88
2022-08-14T06:11:53.036Z,1005.91
2022-08-14T06:13:57.063Z,1005.89
2022-08-14T06:14:57.083Z,1005.88
2022-08-14T06:17:01.590Z,1005.83
2022-08-14T06:18:01.770Z,1005.83
2022-08-14T06:20:05.180Z,1005.83
2022-08-14T06:21:05.201Z,1005.83
2022-08-14T06:23:09.698Z,1005.82
2022-08-14T06:24:10.620Z,1005.84
2022-08-14T06:26:13.286Z,1005.76
2022-08-14T06:27:13.309Z,1005.74
2022-08-14T06:29:17.807Z,1005.74
2022-08-14T06:30:17.368Z,1005.74
2022-08-14T06:32:37.419Z,1005.79
2022-08-14T06:33:21.429Z,1005.77
2022-08-14T06:35:26.437Z,1005.83
2022-08-14T06:36:25.488Z,1005.82
2022-08-14T06:38:29.525Z,1005.84
2022-08-14T06:39:36.331Z,1005.88
2022-08-14T06:41:57.126Z,1005.90
2022-08-14T06:42:33.613Z,1005.93
2022-08-14T06:44:38.119Z,1005.93
2022-08-14T06:45:37.676Z,1005.92
2022-08-14T06:47:30.646Z,1005.85
2022-08-14T06:48:32.613Z,1005.85
2022-08-14T06:50:35.165Z,1005.84
2022-08-14T06:51:38.679Z,1005.82
2022-08-14T06:53:38.761Z,1005.86
2022-08-14T06:54:38.793Z,1005.82
2022-08-14T06:56:44.444Z,1005.79
2022-08-14T06:57:42.857Z,1005.78
2022-08-14T06:59:47.359Z,1005.76
2022-08-14T07:00:46.922Z,1005.74
2022-08-14T07:02:50.966Z,1005.77
2022-08-14T07:03:50.989Z,1005.77
2022-08-14T07:05:58.404Z,1005.71
2022-08-14T07:06:58.431Z,1005.71
2022-08-14T07:08:59.104Z,1005.67
2022-08-14T07:09:59.129Z,1005.69
2022-08-14T07:12:05.134Z,1005.61
2022-08-14T07:13:04.315Z,1005.63
2022-08-14T07:15:07.246Z,1005.61
2022-08-14T07:16:07.263Z,1005.64
2022-08-14T07:18:11.772Z,1005.71
2022-08-14T07:19:11.334Z,1005.69
2022-08-14T07:21:15.835Z,1005.67
2022-08-14T07:22:17.545Z,1005.65
2022-08-14T07:24:26.324Z,1005.71
2022-08-14T07:25:19.463Z,1005.75
2022-08-14T07:27:12.952Z,1005.73
2022-08-14T07:28:12.979Z,1005.66
2022-08-14T07:30:33.979Z,1005.69
2022-08-14T07:31:16.588Z,1005.64
2022-08-14T07:33:29.238Z,1005.63
2022-08-14T07:34:26.318Z,1005.57
2022-08-14T07:36:27.840Z,1005.58
2022-08-14T07:37:24.621Z,1005.53
2022-08-14T07:39:29.153Z,1005.53
2022-08-14T07:40:29.887Z,1005.52
2022-08-14T07:42:32.721Z,1005.53
2022-08-14T07:43:32.748Z,1005.49
2022-08-14T07:45:38.076Z,1005.52
2022-08-14T07:46:36.812Z,1005.53
2022-08-14T07:48:41.321Z,1005.55
2022-08-14T07:49:40.914Z,1005.55
2022-08-14T07:51:45.381Z,1005.52
2022-08-14T07:52:45.002Z,1005.52
2022-08-14T07:54:49.433Z,1005.52
2022-08-14T07:56:00.365Z,1005.51
2022-08-14T07:57:41.960Z,1005.44
2022-08-14T07:58:51.284Z,1005.48
2022-08-14T08:00:46.465Z,1005.51
2022-08-14T08:01:47.943Z,1005.48
2022-08-14T08:03:51.968Z,1005.54
2022-08-14T08:04:50.077Z,1005.52
2022-08-14T08:06:55.088Z,1005.48
2022-08-14T08:07:54.137Z,1005.48
2022-08-14T08:09:59.718Z,1005.47
2022-08-14T08:11:02.409Z,1005.48
2022-08-14T08:13:02.243Z,1005.41
2022-08-14T08:14:02.261Z,1005.41
2022-08-14T08:16:59.748Z,1005.44
2022-08-14T08:18:01.405Z,1005.46
2022-08-14T08:20:03.740Z,1005.46
2022-08-14T08:21:03.298Z,1005.41
2022-08-14T08:23:08.363Z,1005.42
2022-08-14T08:24:08.366Z,1005.36
2022-08-14T08:26:12.865Z,1005.37
2022-08-14T08:27:12.423Z,1005.33
2022-08-14T08:29:16.457Z,1005.34
2022-08-14T08:30:16.478Z,1005.33
2022-08-14T08:32:20.979Z,1005.31
2022-08-14T08:33:20.538Z,1005.32
2022-08-14T08:35:25.037Z,1005.25
2022-08-14T08:36:24.596Z,1005.26
2022-08-14T08:39:18.701Z,1005.24
2022-08-14T08:39:31.004Z,1005.23
2022-08-14T08:41:33.157Z,1005.20
2022-08-14T08:42:38.636Z,1005.20
2022-08-14T08:44:36.751Z,1005.15
2022-08-14T08:45:36.774Z,1005.14
2022-08-14T08:47:29.761Z,1005.07
2022-08-14T08:48:31.839Z,1005.05
2022-08-14T08:50:55.269Z,1005.00
2022-08-14T08:52:37.808Z,1004.99
2022-08-14T08:53:37.836Z,1004.97
2022-08-14T08:55:42.504Z,1004.95
2022-08-14T08:56:42.112Z,1004.96
2022-08-14T08:58:45.932Z,1004.90
2022-08-14T08:59:45.953Z,1004.87
2022-08-14T09:01:51.507Z,1004.84
2022-08-14T09:02:50.015Z,1004.82
2022-08-14T09:04:54.056Z,1004.73
2022-08-14T09:05:54.367Z,1004.75
2022-08-14T09:07:47.565Z,1004.69
2022-08-14T09:08:47.056Z,1004.67
2022-08-14T09:10:56.262Z,1004.70
2022-08-14T09:11:51.115Z,1004.68
2022-08-14T09:13:55.616Z,1004.64
2022-08-14T09:14:55.174Z,1004.66
2022-08-14T09:17:01.145Z,1004.65
2022-08-14T09:17:59.265Z,1004.64
2022-08-14T09:20:04.126Z,1004.57
2022-08-14T09:21:03.302Z,1004.57
2022-08-14T09:23:07.804Z,1004.61
2022-08-14T09:24:28.093Z,1004.58
2022-08-14T09:26:21.025Z,1004.70
2022-08-14T09:27:16.588Z,1004.62
2022-08-14T09:29:15.920Z,1004.64
2022-08-14T09:30:32.770Z,1004.70
2022-08-14T09:32:59.240Z,1004.65
2022-08-14T09:33:19.536Z,1004.65
2022-08-14T09:35:24.039Z,1004.59
2022-08-14T09:36:23.599Z,1004.64
2022-08-14T09:38:27.630Z,1004.62
2022-08-14T09:39:27.677Z,1004.62
2022-08-14T09:42:17.673Z,1004.59
2022-08-14T09:42:34.046Z,1004.57
2022-08-14T09:44:36.214Z,1004.63
2022-08-14T09:45:39.754Z,1004.65
2022-08-14T09:47:28.729Z,1004.58
2022-08-14T09:48:30.900Z,1004.55
2022-08-14T09:50:33.251Z,1004.53
2022-08-14T09:51:44.854Z,1004.56
2022-08-14T09:54:18.037Z,1004.51
2022-08-14T09:54:36.865Z,1004.53
2022-08-14T09:56:40.912Z,1004.44
2022-08-14T09:57:41.005Z,1004.46
2022-08-14T09:59:45.440Z,1004.45
2022-08-14T10:00:44.998Z,1004.44
2022-08-14T10:02:49.229Z,1004.42
2022-08-14T10:03:49.064Z,1004.44
2022-08-14T10:05:53.570Z,1004.43
2022-08-14T10:06:53.126Z,1004.35
2022-08-14T10:08:57.625Z,1004.34
2022-08-14T10:09:59.943Z,1004.34
2022-08-14T10:12:01.224Z,1004.28
2022-08-14T10:13:01.248Z,1004.35
2022-08-14T10:15:05.750Z,1004.28
2022-08-14T10:16:05.331Z,1004.37
2022-08-14T10:18:09.363Z,1004.30
2022-08-14T10:19:09.800Z,1004.27
2022-08-14T10:21:13.890Z,1004.21
2022-08-14T10:23:14.422Z,1004.31
2022-08-14T10:24:17.746Z,1004.24
2022-08-14T10:25:17.516Z,1004.23
2022-08-14T10:27:11.003Z,1004.25
2022-08-14T10:28:39.202Z,1004.14
2022-08-14T10:30:15.017Z,1004.06
2022-08-14T10:31:14.555Z,1004.07
2022-08-14T10:33:19.050Z,1003.97
2022-08-14T10:34:18.996Z,1003.97
2022-08-14T10:36:34.729Z,1004.06
2022-08-14T10:37:22.971Z,1004.02
2022-08-14T10:39:27.695Z,1004.05
2022-08-14T10:40:38.490Z,1004.01
2022-08-14T10:42:31.236Z,1003.97
2022-08-14T10:43:37.973Z,1003.98
2022-08-14T10:45:35.810Z,1003.86
2022-08-14T10:47:40.875Z,1003.89
2022-08-14T10:48:44.841Z,1003.92
2022-08-14T10:49:39.418Z,1003.89
2022-08-14T10:50:39.451Z,1003.94
2022-08-14T10:51:39.821Z,1003.92
2022-08-14T10:52:43.450Z,1003.89
2022-08-14T10:53:40.066Z,1003.84
2022-08-14T10:54:40.244Z,1003.80
2022-08-14T10:55:39.624Z,1003.82
2022-08-14T10:56:39.658Z,1003.78
2022-08-14T10:57:39.690Z,1003.74
2022-08-14T10:58:39.723Z,1003.71
2022-08-14T10:59:43.169Z,1003.72
2022-08-14T11:00:39.794Z,1003.75
2022-08-14T11:01:41.392Z,1003.81
2022-08-14T11:02:50.293Z,1003.78
2022-08-14T11:03:56.156Z,1003.74
2022-08-14T11:04:39.992Z,1003.74
2022-08-14T11:05:39.965Z,1003.69
2022-08-14T11:06:40.024Z,1003.72
2022-08-14T11:07:40.045Z,1003.68
2022-08-14T11:08:40.072Z,1003.69
2022-08-14T11:09:41.923Z,1003.71
2022-08-14T11:10:42.998Z,1003.67
2022-08-14T11:11:40.172Z,1003.68
2022-08-14T11:12:40.475Z,1003.66
2022-08-14T11:13:40.241Z,1003.70
2022-08-14T11:14:40.283Z,1003.64
2022-08-14T11:15:41.022Z,1003.60
2022-08-14T11:16:40.643Z,1003.59
2022-08-14T11:17:40.382Z,1003.54
2022-08-14T11:18:40.700Z,1003.56
2022-08-14T11:19:40.449Z,1003.50
2022-08-14T11:20:40.487Z,1003.48
2022-08-14T11:21:40.515Z,1003.49
2022-08-14T11:22:52.888Z,1003.47
2022-08-14T11:23:43.878Z,1003.40
2022-08-14T11:24:55.444Z,1003.49
2022-08-14T11:25:43.667Z,1003.51
2022-08-14T11:26:40.697Z,1003.48
2022-08-14T11:27:40.734Z,1003.44
2022-08-14T11:28:46.752Z,1003.48
2022-08-14T11:29:40.801Z,1003.40
2022-08-14T11:30:49.203Z,1003.40
2022-08-14T11:31:40.867Z,1003.41
2022-08-14T11:32:40.942Z,1003.34
2022-08-14T11:33:40.941Z,1003.40
2022-08-14T11:34:40.978Z,1003.35
2022-08-14T11:35:44.272Z,1003.33
2022-08-14T11:37:09.512Z,1003.28
2022-08-14T11:37:41.083Z,1003.26
2022-08-14T11:38:41.118Z,1003.22
2022-08-14T11:39:41.163Z,1003.17
2022-08-14T11:40:41.190Z,1003.17
2022-08-14T11:41:55.524Z,1003.17
2022-08-14T11:42:56.703Z,1003.18
2022-08-14T11:43:41.690Z,1003.14
2022-08-14T11:44:46.240Z,1003.17
2022-08-14T11:45:41.367Z,1003.16
2022-08-14T11:46:41.397Z,1003.10
2022-08-14T11:47:44.210Z,1003.18
2022-08-14T11:49:03.697Z,1003.14
2022-08-14T11:49:41.502Z,1003.13
2022-08-14T11:50:41.538Z,1003.14
2022-08-14T11:51:54.428Z,1003.13
2022-08-14T11:52:41.628Z,1003.16
2022-08-14T11:53:41.926Z,1003.08
2022-08-14T11:54:41.677Z,1003.15
2022-08-14T11:55:41.719Z,1003.12
2022-08-14T11:56:41.752Z,1003.12
2022-08-14T11:57:41.809Z,1003.08
2022-08-14T11:58:42.429Z,1003.11
2022-08-14T11:59:44.295Z,1003.11
2022-08-14T12:00:46.172Z,1003.08
2022-08-14T12:01:41.934Z,1003.11
2022-08-14T12:03:03.096Z,1003.12
2022-08-14T12:03:51.385Z,1003.04
2022-08-14T12:04:42.100Z,1003.02
2022-08-14T12:05:42.071Z,1003.03
2022-08-14T12:06:42.101Z,1003.05
2022-08-14T12:07:42.931Z,1003.00
2022-08-14T12:08:42.173Z,1002.99
2022-08-14T12:09:42.900Z,1002.93
2022-08-14T12:10:42.779Z,1002.92
2022-08-14T12:11:43.811Z,1002.93
2022-08-14T12:12:42.332Z,1002.95
2022-08-14T12:13:44.411Z,1002.96
2022-08-14T12:14:44.360Z,1002.94
2022-08-14T12:15:45.033Z,1002.84
2022-08-14T12:16:42.457Z,1002.88
2022-08-14T12:17:47.530Z,1002.84
2022-08-14T12:18:42.523Z,1002.87
2022-08-14T12:19:42.558Z,1002.81
2022-08-14T12:20:45.944Z,1002.79
2022-08-14T12:21:46.561Z,1002.79
2022-08-14T12:22:43.117Z,1002.79
2022-08-14T12:23:42.704Z,1002.77
2022-08-14T12:24:42.741Z,1002.74
2022-08-14T12:25:42.785Z,1002.68
2022-08-14T12:26:42.808Z,1002.63
2022-08-14T12:27:52.429Z,1002.70
2022-08-14T12:28:59.951Z,1002.69
2022-08-14T12:29:42.910Z,1002.67
2022-08-14T12:30:43.774Z,1002.65
2022-08-14T12:31:44.721Z,1002.68
2022-08-14T12:32:43.017Z,1002.72
2022-08-14T12:33:46.827Z,1002.71
2022-08-14T12:34:45.132Z,1002.72
2022-08-14T12:35:43.123Z,1002.68
2022-08-14T12:36:43.162Z,1002.72
2022-08-14T12:37:43.194Z,1002.68
2022-08-14T12:38:43.742Z,1002.70
2022-08-14T12:39:43.290Z,1002.65
2022-08-14T12:40:43.304Z,1002.67
2022-08-14T12:41:43.340Z,1002.68
2022-08-14T12:42:47.599Z,1002.61
2022-08-14T12:43:43.407Z,1002.56
2022-08-14T12:44:43.442Z,1002.54
2022-08-14T12:45:43.484Z,1002.63
2022-08-14T12:46:46.899Z,1002.52
2022-08-14T12:47:43.554Z,1002.56
2022-08-14T12:48:43.588Z,1002.50
2022-08-14T12:49:43.621Z,1002.49
2022-08-14T12:50:43.660Z,1002.50
2022-08-14T12:51:43.698Z,1002.49
2022-08-14T12:53:01.941Z,1002.55
2022-08-14T12:53:43.764Z,1002.52
2022-08-14T12:55:01.411Z,1002.59
2022-08-14T12:56:17.580Z,1002.58
2022-08-14T12:56:43.872Z,1002.56
2022-08-14T12:57:43.908Z,1002.56
2022-08-14T12:58:51.934Z,1002.59
2022-08-14T12:59:43.978Z,1002.57
2022-08-14T13:00:59.245Z,1002.55
2022-08-14T13:01:59.789Z,1002.51
2022-08-14T13:02:44.138Z,1002.47
2022-08-14T13:03:44.118Z,1002.46
2022-08-14T13:04:44.161Z,1002.47
2022-08-14T13:05:44.190Z,1002.47
2022-08-14T13:06:44.229Z,1002.46
2022-08-14T13:07:45.794Z,1002.46
2022-08-14T13:08:53.017Z,1002.43
2022-08-14T13:09:44.341Z,1002.46
2022-08-14T13:10:47.030Z,1002.42
2022-08-14T13:11:44.849Z,1002.33
2022-08-14T13:13:10.086Z,1002.34
2022-08-14T13:13:44.728Z,1002.33
2022-08-14T13:14:44.515Z,1002.34
2022-08-14T13:15:44.551Z,1002.30
2022-08-14T13:16:44.586Z,1002.30
2022-08-14T13:17:44.624Z,1002.32
2022-08-14T13:18:46.675Z,1002.28
2022-08-14T13:19:44.691Z,1002.27
2022-08-14T13:20:49.445Z,1002.21
2022-08-14T13:22:04.779Z,1002.19
2022-08-14T13:22:44.864Z,1002.21
2022-08-14T13:23:45.381Z,1002.17
2022-08-14T13:24:44.893Z,1002.14
2022-08-14T13:25:55.573Z,1002.13
2022-08-14T13:26:44.947Z,1002.16
2022-08-14T13:27:44.981Z,1002.15
2022-08-14T13:29:02.551Z,1002.17
2022-08-14T13:29:47.149Z,1002.10
2022-08-14T13:30:45.088Z,1002.09
2022-08-14T13:31:45.128Z,1002.11
2022-08-14T13:32:45.391Z,1002.10
2022-08-14T13:33:45.198Z,1002.06
2022-08-14T13:34:45.573Z,1002.04
2022-08-14T13:35:45.271Z,1001.99
2022-08-14T13:36:55.006Z,1001.96
2022-08-14T13:37:45.473Z,1001.92
2022-08-14T13:38:45.377Z,1001.89
2022-08-14T13:39:45.460Z,1001.87
2022-08-14T13:40:45.451Z,1001.84
2022-08-14T13:41:45.489Z,1001.89
2022-08-14T13:42:45.682Z,1001.79
2022-08-14T13:43:49.271Z,1001.76
2022-08-14T13:44:45.598Z,1001.75
2022-08-14T13:46:00.655Z,1001.74
2022-08-14T13:46:45.977Z,1001.74
2022-08-14T13:47:46.689Z,1001.76
2022-08-14T13:48:45.742Z,1001.72
2022-08-14T13:49:57.634Z,1001.72
2022-08-14T13:50:45.812Z,1001.76
2022-08-14T13:51:45.856Z,1001.69
2022-08-14T13:52:51.931Z,1001.75
2022-08-14T13:54:07.028Z,1001.75
2022-08-14T13:54:45.958Z,1001.72
2022-08-14T13:55:45.995Z,1001.72
2022-08-14T13:56:46.027Z,1001.66
2022-08-14T13:57:49.712Z,1001.68
2022-08-14T13:58:46.904Z,1001.60
2022-08-14T13:59:46.136Z,1001.64
2022-08-14T14:00:53.286Z,1001.59
2022-08-14T14:01:46.234Z,1001.59
2022-08-14T14:02:46.569Z,1001.57
2022-08-14T14:03:46.283Z,1001.49
2022-08-14T14:04:49.553Z,1001.46
2022-08-14T14:05:53.383Z,1001.40
2022-08-14T14:06:46.388Z,1001.38
2022-08-14T14:07:46.420Z,1001.36
2022-08-14T14:08:47.917Z,1001.32
2022-08-14T14:09:52.638Z,1001.30
2022-08-14T14:10:46.536Z,1001.16
2022-08-14T14:11:46.569Z,1001.22
2022-08-14T14:12:56.389Z,1001.22
2022-08-14T14:13:46.682Z,1001.32